createdAt,value
2022-11-29T00:00:58.564Z,101108.00
2022-11-29T00:04:00.375Z,101100.12
2022-11-29T00:07:02.209Z,101099.03
2022-11-29T00:10:04.155Z,101098.97
2022-11-29T00:13:06.006Z,101095.75
2022-11-29T00:16:09.161Z,101089.28
2022-11-29T00:19:11.641Z,101095.72
2022-11-29T00:22:13.500Z,101091.59
2022-11-29T00:25:15.334Z,101084.44
2022-11-29T00:28:17.199Z,101082.50
2022-11-29T00:31:23.083Z,101077.13
2022-11-29T00:34:24.941Z,101076.06
2022-11-29T00:37:26.760Z,101076.06
2022-11-29T00:40:28.556Z,101069.12
2022-11-29T00:43:30.391Z,101065.62
2022-11-29T00:46:32.204Z,101075.19
2022-11-29T00:49:34.007Z,101071.75
2022-11-29T00:52:35.937Z,101072.53
2022-11-29T00:55:37.813Z,101062.12
2022-11-29T00:58:39.627Z,101066.50
2022-11-29T01:01:41.576Z,101073.47
2022-11-29T01:04:43.794Z,101070.00
2022-11-29T01:07:45.917Z,101060.41
2022-11-29T01:10:47.818Z,101063.91
2022-11-29T01:13:50.188Z,101063.94
2022-11-29T01:16:52.189Z,101049.78
2022-11-29T01:19:54.118Z,101064.78
2022-11-29T01:22:55.950Z,101062.19
2022-11-29T01:25:58.571Z,101060.44
2022-11-29T01:29:00.373Z,101062.94
2022-11-29T01:32:02.158Z,101063.87
2022-11-29T01:35:04.473Z,101059.56
2022-11-29T01:38:06.292Z,101057.87
2022-11-29T01:41:09.518Z,101061.34
2022-11-29T01:44:14.099Z,101051.66
2022-11-29T01:47:16.614Z,101050.87
2022-11-29T01:50:18.432Z,101050.69
2022-11-29T01:53:20.333Z,101063.00
2022-11-29T01:56:22.195Z,101059.50
2022-11-29T01:59:24.453Z,101048.09
2022-11-29T02:02:34.332Z,101055.25
2022-11-29T02:05:37.181Z,101063.03
2022-11-29T02:08:40.087Z,101057.87
2022-11-29T02:11:45.006Z,101046.59
2022-11-29T02:14:56.771Z,101056.09
2022-11-29T02:18:21.582Z,101068.25
2022-11-29T02:21:26.722Z,101059.41
2022-11-29T02:24:33.844Z,101061.19
2022-11-29T02:27:58.596Z,101066.53
2022-11-29T02:31:15.528Z,101069.12
2022-11-29T02:34:26.510Z,101069.03
2022-11-29T02:37:43.646Z,101076.00
2022-11-29T02:40:50.207Z,101082.13
2022-11-29T02:43:52.035Z,101075.19
2022-11-29T02:47:03.039Z,101076.94
2022-11-29T02:50:04.848Z,101071.69
2022-11-29T02:53:06.681Z,101078.53
2022-11-29T02:56:08.484Z,101076.03
2022-11-29T02:59:29.216Z,101060.47
2022-11-29T03:02:49.488Z,101072.56
2022-11-29T03:05:59.374Z,101081.25
2022-11-29T03:09:04.896Z,101076.91
2022-11-29T03:12:12.721Z,101082.06
2022-11-29T03:15:19.964Z,101073.41
2022-11-29T03:18:21.856Z,101082.16
2022-11-29T03:21:38.936Z,101077.78
2022-11-29T03:24:52.260Z,101084.72
2022-11-29T03:27:56.772Z,101083.81
2022-11-29T03:31:02.233Z,101074.28
2022-11-29T03:34:21.658Z,101075.97
2022-11-29T03:37:26.043Z,101076.03
2022-11-29T03:40:48.162Z,101082.91
2022-11-29T03:44:08.776Z,101086.41
2022-11-29T03:47:14.160Z,101073.47
2022-11-29T03:50:23.828Z,101090.81
2022-11-29T03:53:44.553Z,101086.47
2022-11-29T03:56:46.575Z,101094.22
2022-11-29T03:59:56.460Z,101096.88
2022-11-29T04:03:07.640Z,101095.13
2022-11-29T04:06:24.113Z,101101.91
2022-11-29T04:09:40.086Z,101096.78
2022-11-29T04:12:44.928Z,101095.97
2022-11-29T04:15:53.014Z,101095.09
2022-11-29T04:18:57.684Z,101108.13
2022-11-29T04:22:08.422Z,101109.00
2022-11-29T04:25:36.759Z,101114.81
2022-11-29T04:28:38.567Z,101112.28
2022-11-29T04:31:52.797Z,101115.06
2022-11-29T04:35:13.040Z,101115.44
2022-11-29T04:38:33.729Z,101096.78
2022-11-29T04:42:02.209Z,101111.47
2022-11-29T04:45:22.847Z,101101.13
2022-11-29T04:48:36.936Z,101107.13
2022-11-29T04:51:45.754Z,101126.88
2022-11-29T04:54:58.471Z,101120.12
2022-11-29T04:58:02.648Z,101122.72
2022-11-29T05:01:20.392Z,101134.84
2022-11-29T05:04:51.989Z,101130.66
2022-11-29T05:08:17.328Z,101133.28
2022-11-29T05:11:38.151Z,101141.87
2022-11-29T05:14:58.579Z,101146.09
2022-11-29T05:18:26.556Z,101152.34
2022-11-29T05:21:43.624Z,101151.34
2022-11-29T05:25:11.893Z,101156.94
2022-11-29T05:28:26.231Z,101157.12
2022-11-29T05:31:41.016Z,101150.34
2022-11-29T05:35:01.842Z,101146.03
2022-11-29T05:38:22.422Z,101158.63
2022-11-29T05:41:33.531Z,101153.78
2022-11-29T05:44:58.409Z,101153.69
2022-11-29T05:48:09.451Z,101149.53
2022-11-29T05:51:22.121Z,101149.63
2022-11-29T05:54:26.322Z,101144.53
2022-11-29T05:57:37.538Z,101153.13
2022-11-29T06:00:54.143Z,101141.03
2022-11-29T06:03:55.898Z,101146.00
2022-11-29T06:07:18.190Z,101165.91
2022-11-29T06:10:21.589Z,101161.00
2022-11-29T06:13:42.572Z,101158.38
2022-11-29T06:16:51.229Z,101168.69
2022-11-29T06:19:53.295Z,101170.53
2022-11-29T06:23:14.104Z,101178.94
2022-11-29T06:26:34.009Z,101171.41
2022-11-29T06:29:42.339Z,101170.47
2022-11-29T06:32:54.380Z,101174.00
2022-11-29T06:36:16.239Z,101167.91
2022-11-29T06:39:18.235Z,101173.03
2022-11-29T06:42:20.191Z,101179.91
2022-11-29T06:45:22.230Z,101164.97
2022-11-29T06:48:25.051Z,101177.19
2022-11-29T06:51:45.477Z,101182.44
2022-11-29T06:55:07.644Z,101191.91
2022-11-29T06:58:32.870Z,101175.72
2022-11-29T07:01:58.330Z,101187.56
2022-11-29T07:05:00.206Z,101182.66
2022-11-29T07:08:22.999Z,101183.56
2022-11-29T07:11:25.085Z,101180.94
2022-11-29T07:14:27.102Z,101192.87
2022-11-29T07:17:28.905Z,101192.00
2022-11-29T07:20:49.662Z,101199.66
2022-11-29T07:23:51.607Z,101195.53
2022-11-29T07:27:16.742Z,101199.03
2022-11-29T07:30:23.264Z,101195.66
2022-11-29T07:33:42.051Z,101188.66
2022-11-29T07:36:50.206Z,101193.97
2022-11-29T07:39:55.552Z,101189.63
2022-11-29T07:43:01.697Z,101192.19
2022-11-29T07:46:03.738Z,101199.16
2022-11-29T07:49:05.903Z,101206.84
2022-11-29T07:52:09.869Z,101185.28
2022-11-29T07:55:18.731Z,101196.53
2022-11-29T07:58:21.131Z,101206.94
2022-11-29T08:01:23.175Z,101208.59
2022-11-29T08:04:25.255Z,101203.50
2022-11-29T08:07:27.290Z,101208.62
2022-11-29T08:10:29.127Z,101208.56
2022-11-29T08:13:31.232Z,101203.94
2022-11-29T08:16:33.276Z,101206.91
2022-11-29T08:19:35.269Z,101196.53
2022-11-29T08:22:39.825Z,101198.22
2022-11-29T08:25:41.709Z,101199.00
2022-11-29T08:28:43.754Z,101200.03
2022-11-29T08:31:45.752Z,101201.75
2022-11-29T08:34:48.059Z,101205.09
2022-11-29T08:37:50.043Z,101197.44
2022-11-29T08:40:51.922Z,101218.47
2022-11-29T08:43:55.098Z,101218.03
2022-11-29T08:47:17.454Z,101207.72
2022-11-29T08:50:20.935Z,101226.66
2022-11-29T08:53:43.642Z,101218.00
2022-11-29T09:00:17.791Z,101206.94
2022-11-29T09:03:38.500Z,101208.62
2022-11-29T09:06:41.560Z,101209.53
2022-11-29T09:09:45.412Z,101211.16
2022-11-29T09:12:48.331Z,101205.25
2022-11-29T09:15:50.196Z,101197.41
2022-11-29T09:18:55.769Z,101200.88
2022-11-29T09:21:57.694Z,101194.81
2022-11-29T09:24:59.578Z,101201.66
2022-11-29T09:28:02.914Z,101195.69
2022-11-29T09:31:14.763Z,101197.41
2022-11-29T09:34:16.742Z,101190.47
2022-11-29T09:37:18.615Z,101194.81
2022-11-29T09:40:21.801Z,101189.59
2022-11-29T09:43:31.938Z,101198.19
2022-11-29T09:46:33.914Z,101193.09
2022-11-29T09:49:54.038Z,101190.47
2022-11-29T09:53:01.765Z,101193.94
2022-11-29T09:56:39.041Z,101188.72
2022-11-29T09:59:44.979Z,101179.16
2022-11-29T10:02:51.011Z,101185.13
2022-11-29T10:05:57.724Z,101180.06
2022-11-29T10:09:01.860Z,101181.75
2022-11-29T10:12:06.809Z,101170.47
2022-11-29T10:15:14.034Z,101169.63
2022-11-29T10:18:17.438Z,101161.91
2022-11-29T10:21:21.105Z,101154.06
2022-11-29T10:24:23.049Z,101161.00
2022-11-29T10:27:28.502Z,101156.69
2022-11-29T10:30:33.095Z,101154.97
2022-11-29T10:33:35.607Z,101147.84
2022-11-29T10:36:43.453Z,101146.25
2022-11-29T10:39:46.964Z,101148.84
2022-11-29T10:42:48.776Z,101144.41
2022-11-29T10:45:51.041Z,101136.62
2022-11-29T10:48:53.098Z,101145.28
2022-11-29T10:51:55.137Z,101143.66
2022-11-29T10:54:57.340Z,101139.22
2022-11-29T10:58:16.014Z,101131.31
2022-11-29T11:01:17.971Z,101141.94
2022-11-29T11:04:36.554Z,101137.53
2022-11-29T11:07:38.727Z,101126.69
2022-11-29T11:10:41.511Z,101126.72
2022-11-29T11:13:43.397Z,101122.06
2022-11-29T11:16:45.832Z,101128.72
2022-11-29T11:20:08.560Z,101140.00
2022-11-29T11:23:42.793Z,101139.78
2022-11-29T11:26:45.238Z,101135.00
2022-11-29T11:29:47.133Z,101141.06
2022-11-29T11:33:08.568Z,101131.31
2022-11-29T11:36:19.735Z,101124.41
2022-11-29T11:39:22.269Z,101136.44
2022-11-29T11:42:39.564Z,101124.69
2022-11-29T11:45:41.530Z,101130.94
2022-11-29T11:48:43.471Z,101127.16
2022-11-29T11:51:45.398Z,101127.69
2022-11-29T11:54:50.033Z,101128.66
2022-11-29T11:58:06.056Z,101132.22
2022-11-29T12:01:30.906Z,101122.50
2022-11-29T12:04:34.245Z,101128.53
2022-11-29T12:08:06.803Z,101127.03
2022-11-29T12:11:07.490Z,101140.22
2022-11-29T12:14:10.280Z,101132.41
2022-11-29T12:17:31.346Z,101128.09
2022-11-29T12:20:41.188Z,101118.53
2022-11-29T12:23:45.072Z,101125.47
2022-11-29T12:27:02.580Z,101128.84
2022-11-29T12:30:10.692Z,101123.69
2022-11-29T12:33:17.900Z,101125.37
2022-11-29T12:36:31.983Z,101114.94
2022-11-29T12:39:33.837Z,101120.12
2022-11-29T12:42:39.555Z,101112.28
2022-11-29T12:45:41.429Z,101118.47
2022-11-29T12:49:03.464Z,101121.13
2022-11-29T12:52:34.995Z,101112.38
2022-11-29T12:55:55.308Z,101113.16
2022-11-29T12:58:57.272Z,101115.56
2022-11-29T13:02:17.810Z,101111.53
2022-11-29T13:05:19.635Z,101116.75
2022-11-29T13:08:41.572Z,101116.78
2022-11-29T13:11:46.548Z,101119.34
2022-11-29T13:14:49.778Z,101113.28
2022-11-29T13:17:57.308Z,101114.13
2022-11-29T13:21:09.840Z,101107.06
2022-11-29T13:24:11.728Z,101101.25
2022-11-29T13:27:15.019Z,101112.50
2022-11-29T13:30:17.446Z,101114.78
2022-11-29T13:33:25.231Z,101113.53
2022-11-29T13:36:48.142Z,101103.44
2022-11-29T13:40:09.080Z,101118.37
2022-11-29T13:43:11.017Z,101112.28
2022-11-29T13:46:25.291Z,101109.62
2022-11-29T13:49:47.609Z,101115.91
2022-11-29T13:52:49.500Z,101113.62
2022-11-29T13:56:02.647Z,101115.81
2022-11-29T13:59:08.529Z,101121.06
2022-11-29T14:02:30.482Z,101112.22
2022-11-29T14:05:32.629Z,101113.12
2022-11-29T14:09:10.409Z,101116.16
2022-11-29T14:12:00.602Z,101123.56
2022-11-29T14:15:11.286Z,101117.31
2022-11-29T14:18:31.987Z,101118.00
2022-11-29T14:21:52.579Z,101115.47
2022-11-29T14:24:58.867Z,101105.16
2022-11-29T14:28:05.104Z,101116.59
2022-11-29T14:31:07.498Z,101115.81
2022-11-29T14:34:13.583Z,101105.94
2022-11-29T14:37:21.701Z,101105.84
2022-11-29T14:40:29.141Z,101101.41
2022-11-29T14:43:34.726Z,101109.69
2022-11-29T14:46:36.599Z,101108.66
2022-11-29T14:49:39.859Z,101112.94
2022-11-29T14:52:51.447Z,101113.00
2022-11-29T14:55:53.366Z,101116.72
2022-11-29T14:59:14.107Z,101107.41
2022-11-29T15:02:37.676Z,101109.25
2022-11-29T15:05:58.795Z,101108.25
2022-11-29T15:09:04.894Z,101110.44
2022-11-29T15:12:10.461Z,101112.09
2022-11-29T15:15:24.509Z,101114.53
2022-11-29T15:18:39.695Z,101112.81
2022-11-29T15:22:00.496Z,101111.13
2022-11-29T15:25:03.542Z,101104.06
2022-11-29T15:28:06.089Z,101115.47
2022-11-29T15:31:08.973Z,101109.28
2022-11-29T15:34:29.314Z,101094.06
2022-11-29T15:37:31.394Z,101112.28
2022-11-29T15:40:36.586Z,101110.06
2022-11-29T15:43:38.442Z,101113.34
2022-11-29T15:46:40.308Z,101106.56
2022-11-29T15:49:42.191Z,101103.38
2022-11-29T15:52:44.023Z,101117.50
2022-11-29T15:55:46.305Z,101112.16
2022-11-29T15:58:48.178Z,101110.56
2022-11-29T16:01:50.298Z,101112.75
2022-11-29T16:04:53.515Z,101103.75
2022-11-29T16:07:59.854Z,101107.81
2022-11-29T16:11:01.947Z,101126.34
2022-11-29T16:14:18.490Z,101129.75
2022-11-29T16:17:21.043Z,101124.03
2022-11-29T16:20:24.302Z,101134.91
2022-11-29T16:23:33.160Z,101120.41
2022-11-29T16:26:36.180Z,101130.62
2022-11-29T16:29:38.534Z,101123.62
2022-11-29T16:32:43.583Z,101132.34
2022-11-29T16:35:45.413Z,101132.97
2022-11-29T16:38:48.250Z,101134.69
2022-11-29T16:42:02.453Z,101138.37
2022-11-29T16:45:23.113Z,101136.44
2022-11-29T16:48:27.712Z,101132.75
2022-11-29T16:51:37.518Z,101142.53
2022-11-29T16:54:39.391Z,101150.88
2022-11-29T16:57:41.318Z,101149.88
2022-11-29T17:00:43.224Z,101147.00
2022-11-29T17:03:45.105Z,101151.00
2022-11-29T17:06:46.980Z,101153.66
2022-11-29T17:09:48.987Z,101159.03
2022-11-29T17:12:51.078Z,101157.47
2022-11-29T17:15:53.245Z,101151.94
2022-11-29T17:18:55.080Z,101161.19
2022-11-29T17:21:56.974Z,101174.44
2022-11-29T17:24:58.985Z,101173.38
2022-11-29T17:28:00.932Z,101158.97
2022-11-29T17:31:12.729Z,101166.47
2022-11-29T17:34:14.797Z,101167.56
2022-11-29T17:37:16.723Z,101167.12
2022-11-29T17:40:20.189Z,101163.25
2022-11-29T17:43:22.000Z,101169.13
2022-11-29T17:46:31.042Z,101168.44
2022-11-29T17:49:33.034Z,101164.19
2022-11-29T17:52:34.860Z,101172.69
2022-11-29T17:55:37.063Z,101165.34
2022-11-29T17:58:39.015Z,101170.97
2022-11-29T18:01:41.085Z,101175.00
2022-11-29T18:04:44.016Z,101169.53
2022-11-29T18:07:58.230Z,101168.00
2022-11-29T18:11:07.058Z,101161.50
2022-11-29T18:14:10.057Z,101169.69
2022-11-29T18:17:12.063Z,101169.09
2022-11-29T18:20:14.288Z,101146.00
2022-11-29T18:23:16.240Z,101163.88
2022-11-29T18:26:19.406Z,101165.16
2022-11-29T18:29:23.091Z,101173.28
2022-11-29T18:32:25.033Z,101170.75
2022-11-29T18:35:28.138Z,101173.47
2022-11-29T18:38:29.934Z,101172.28
2022-11-29T18:41:32.078Z,101177.72
2022-11-29T18:44:33.949Z,101183.91
2022-11-29T18:47:35.823Z,101187.53
2022-11-29T18:50:37.933Z,101179.72
2022-11-29T18:53:39.896Z,101177.22
2022-11-29T18:56:41.824Z,101182.37
2022-11-29T18:59:43.609Z,101184.09
2022-11-29T19:02:45.567Z,101171.50
2022-11-29T19:05:52.089Z,101176.37
2022-11-29T19:08:54.711Z,101179.41
2022-11-29T19:11:56.522Z,101185.94
2022-11-29T19:14:58.377Z,101178.50
2022-11-29T19:18:00.236Z,101187.28
2022-11-29T19:21:09.512Z,101188.19
2022-11-29T19:24:14.175Z,101181.34
2022-11-29T19:27:16.611Z,101185.63
2022-11-29T19:30:18.421Z,101188.75
2022-11-29T19:33:20.255Z,101181.47
2022-11-29T19:36:26.119Z,101185.87
2022-11-29T19:39:29.048Z,101187.62
2022-11-29T19:42:30.905Z,101184.22
2022-11-29T19:45:32.821Z,101182.91
2022-11-29T19:48:34.692Z,101190.75
2022-11-29T19:51:36.972Z,101188.94
2022-11-29T19:54:38.805Z,101184.59
2022-11-29T19:57:40.920Z,101184.72
2022-11-29T20:00:42.813Z,101184.12
2022-11-29T20:03:47.373Z,101183.47
2022-11-29T20:06:49.231Z,101187.56
2022-11-29T20:09:51.042Z,101178.59
2022-11-29T20:12:53.269Z,101172.91
2022-11-29T20:15:55.145Z,101166.09
2022-11-29T20:18:57.200Z,101184.25
2022-11-29T20:21:59.093Z,101180.97
2022-11-29T20:25:00.962Z,101164.44
2022-11-29T20:28:04.137Z,101173.94
2022-11-29T20:31:06.697Z,101177.38
2022-11-29T20:34:10.759Z,101170.50
2022-11-29T20:37:43.557Z,101182.66
2022-11-29T20:41:01.062Z,101170.53
2022-11-29T20:44:07.018Z,101176.47
2022-11-29T20:47:14.026Z,101179.87
2022-11-29T20:50:23.953Z,101186.00
2022-11-29T20:53:36.525Z,101181.66
2022-11-29T20:56:38.375Z,101159.00
2022-11-29T20:59:40.229Z,101161.38
2022-11-29T21:02:42.079Z,101167.69
2022-11-29T21:05:44.174Z,101163.28
2022-11-29T21:08:46.023Z,101177.44
2022-11-29T21:11:47.936Z,101179.97
2022-11-29T21:14:49.933Z,101170.28
2022-11-29T21:17:52.015Z,101159.06
2022-11-29T21:20:53.856Z,101171.00
2022-11-29T21:23:55.801Z,101176.25
2022-11-29T21:26:57.770Z,101176.16
2022-11-29T21:30:00.085Z,101167.75
2022-11-29T21:33:01.959Z,101180.88
2022-11-29T21:36:06.157Z,101176.81
2022-11-29T21:39:08.381Z,101172.06
2022-11-29T21:42:10.362Z,101172.94
2022-11-29T21:45:15.592Z,101178.84
2022-11-29T21:48:37.688Z,101181.66
2022-11-29T21:51:39.666Z,101186.97
2022-11-29T21:54:41.615Z,101178.19
2022-11-29T21:57:43.547Z,101186.78
2022-11-29T22:00:45.465Z,101183.28
2022-11-29T22:03:47.456Z,101177.19
2022-11-29T22:06:49.363Z,101183.97
2022-11-29T22:09:51.310Z,101179.16
2022-11-29T22:12:53.257Z,101171.09
2022-11-29T22:15:55.137Z,101163.41
2022-11-29T22:18:57.018Z,101167.56
2022-11-29T22:21:59.759Z,101167.53
2022-11-29T22:25:01.573Z,101172.94
2022-11-29T22:28:03.416Z,101178.28
2022-11-29T22:31:06.326Z,101180.03
2022-11-29T22:34:08.327Z,101171.09
2022-11-29T22:37:10.169Z,101169.94
2022-11-29T22:40:12.413Z,101170.78
2022-11-29T22:43:14.331Z,101170.75
2022-11-29T22:46:23.066Z,101170.09
2022-11-29T22:49:24.935Z,101167.28
2022-11-29T22:52:27.012Z,101165.84
2022-11-29T22:55:28.822Z,101155.16
2022-11-29T22:58:30.670Z,101159.13
2022-11-29T23:01:33.418Z,101157.22
2022-11-29T23:04:35.228Z,101162.22
2022-11-29T23:07:37.104Z,101154.66
2022-11-29T23:10:38.977Z,101144.19
2022-11-29T23:13:41.414Z,101150.88
2022-11-29T23:16:43.280Z,101146.53
2022-11-29T23:19:45.149Z,101152.25
2022-11-29T23:22:47.016Z,101142.94
2022-11-29T23:25:49.572Z,101144.34
2022-11-29T23:28:51.571Z,101144.94
2022-11-29T23:31:53.434Z,101136.59
2022-11-29T23:34:55.321Z,101143.53
2022-11-29T23:37:57.146Z,101137.31
2022-11-29T23:40:58.941Z,101137.88
2022-11-29T23:44:00.783Z,101137.69
2022-11-29T23:47:02.717Z,101139.59
2022-11-29T23:50:04.933Z,101149.88
2022-11-29T23:53:06.789Z,101145.53
2022-11-29T23:56:10.547Z,101146.38
2022-11-29T23:59:12.437Z,101144.47
